sensor_id;sensor_type;location;lat;lon;timestamp;P1;durP1;ratioP1;P2;durP2;ratioP2
13012;SDS011;22580;57.670;12.006;2024-03-22T00:01:46;0.80;;;0.80;;
13012;SDS011;22580;57.670;12.006;2024-03-22T00:04:13;1.30;;;0.60;;
13012;SDS011;22580;57.670;12.006;2024-03-22T00:06:41;0.80;;;0.80;;
13012;SDS011;22580;57.670;12.006;2024-03-22T00:09:07;1.10;;;1.00;;
13012;SDS011;22580;57.670;12.006;2024-03-22T00:11:34;0.83;;;0.80;;
13012;SDS011;22580;57.670;12.006;2024-03-22T00:14:00;1.23;;;0.97;;
13012;SDS011;22580;57.670;12.006;2024-03-22T00:16:30;0.80;;;0.80;;
13012;SDS011;22580;57.670;12.006;2024-03-22T00:18:56;0.67;;;0.67;;
13012;SDS011;22580;57.670;12.006;2024-03-22T00:21:23;0.60;;;0.60;;
13012;SDS011;22580;57.670;12.006;2024-03-22T00:23:49;1.07;;;0.97;;
13012;SDS011;22580;57.670;12.006;2024-03-22T00:26:16;0.80;;;0.80;;
13012;SDS011;22580;57.670;12.006;2024-03-22T00:28:42;0.90;;;0.80;;
13012;SDS011;22580;57.670;12.006;2024-03-22T00:31:11;1.00;;;1.00;;
13012;SDS011;22580;57.670;12.006;2024-03-22T00:33:38;1.00;;;0.80;;
13012;SDS011;22580;57.670;12.006;2024-03-22T00:36:06;1.10;;;0.90;;
13012;SDS011;22580;57.670;12.006;2024-03-22T00:38:34;1.20;;;1.10;;
13012;SDS011;22580;57.670;12.006;2024-03-22T00:41:00;0.90;;;0.90;;
13012;SDS011;22580;57.670;12.006;2024-03-22T00:43:26;1.23;;;0.97;;
13012;SDS011;22580;57.670;12.006;2024-03-22T00:45:53;0.70;;;0.70;;
13012;SDS011;22580;57.670;12.006;2024-03-22T00:48:19;1.17;;;0.60;;
13012;SDS011;22580;57.670;12.006;2024-03-22T00:50:48;0.90;;;0.80;;
13012;SDS011;22580;57.670;12.006;2024-03-22T00:53:17;2.17;;;0.97;;
13012;SDS011;22580;57.670;12.006;2024-03-22T00:55:51;2.10;;;1.23;;
13012;SDS011;22580;57.670;12.006;2024-03-22T00:58:17;1.43;;;0.97;;
13012;SDS011;22580;57.670;12.006;2024-03-22T01:00:45;0.80;;;0.80;;
13012;SDS011;22580;57.670;12.006;2024-03-22T01:03:11;0.73;;;0.73;;
13012;SDS011;22580;57.670;12.006;2024-03-22T01:05:38;1.07;;;0.70;;
13012;SDS011;22580;57.670;12.006;2024-03-22T01:08:07;0.50;;;0.50;;
13012;SDS011;22580;57.670;12.006;2024-03-22T01:10:34;0.87;;;0.80;;
13012;SDS011;22580;57.670;12.006;2024-03-22T01:13:00;1.00;;;0.90;;
13012;SDS011;22580;57.670;12.006;2024-03-22T01:15:27;0.80;;;0.80;;
13012;SDS011;22580;57.670;12.006;2024-03-22T01:17:53;0.97;;;0.60;;
13012;SDS011;22580;57.670;12.006;2024-03-22T01:20:20;0.90;;;0.80;;
13012;SDS011;22580;57.670;12.006;2024-03-22T01:22:46;1.30;;;1.03;;
13012;SDS011;22580;57.670;12.006;2024-03-22T01:25:15;1.43;;;1.00;;
13012;SDS011;22580;57.670;12.006;2024-03-22T01:27:41;1.17;;;1.07;;
13012;SDS011;22580;57.670;12.006;2024-03-22T01:30:08;1.07;;;0.70;;
13012;SDS011;22580;57.670;12.006;2024-03-22T01:32:34;1.40;;;0.90;;
13012;SDS011;22580;57.670;12.006;2024-03-22T01:35:01;0.60;;;0.60;;
13012;SDS011;22580;57.670;12.006;2024-03-22T01:37:27;0.80;;;0.80;;
13012;SDS011;22580;57.670;12.006;2024-03-22T01:39:54;1.13;;;0.70;;
13012;SDS011;22580;57.670;12.006;2024-03-22T01:42:22;0.80;;;0.80;;
13012;SDS011;22580;57.670;12.006;2024-03-22T01:44:49;1.57;;;0.80;;
13012;SDS011;22580;57.670;12.006;2024-03-22T01:47:15;0.80;;;0.80;;
13012;SDS011;22580;57.670;12.006;2024-03-22T01:49:42;1.37;;;0.90;;
13012;SDS011;22580;57.670;12.006;2024-03-22T01:52:09;0.80;;;0.80;;
13012;SDS011;22580;57.670;12.006;2024-03-22T01:54:36;1.00;;;0.80;;
13012;SDS011;22580;57.670;12.006;2024-03-22T01:57:02;1.43;;;0.87;;
13012;SDS011;22580;57.670;12.006;2024-03-22T01:59:31;0.70;;;0.70;;
13012;SDS011;22580;57.670;12.006;2024-03-22T02:01:58;0.80;;;0.70;;
13012;SDS011;22580;57.670;12.006;2024-03-22T02:04:26;1.17;;;1.07;;
13012;SDS011;22580;57.670;12.006;2024-03-22T02:06:52;0.80;;;0.80;;
13012;SDS011;22580;57.670;12.006;2024-03-22T02:09:19;0.70;;;0.70;;
13012;SDS011;22580;57.670;12.006;2024-03-22T02:11:46;1.10;;;0.83;;
13012;SDS011;22580;57.670;12.006;2024-03-22T02:14:13;1.23;;;0.87;;
13012;SDS011;22580;57.670;12.006;2024-03-22T02:16:41;1.30;;;0.90;;
13012;SDS011;22580;57.670;12.006;2024-03-22T02:19:08;1.00;;;1.00;;
13012;SDS011;22580;57.670;12.006;2024-03-22T02:21:34;1.10;;;1.00;;
13012;SDS011;22580;57.670;12.006;2024-03-22T02:24:05;1.50;;;1.37;;
13012;SDS011;22580;57.670;12.006;2024-03-22T02:26:32;1.07;;;0.90;;
13012;SDS011;22580;57.670;12.006;2024-03-22T02:28:59;1.20;;;1.10;;
13012;SDS011;22580;57.670;12.006;2024-03-22T02:31:25;1.33;;;1.07;;
13012;SDS011;22580;57.670;12.006;2024-03-22T02:33:52;0.93;;;0.90;;
13012;SDS011;22580;57.670;12.006;2024-03-22T02:36:18;1.10;;;1.00;;
13012;SDS011;22580;57.670;12.006;2024-03-22T02:38:44;0.90;;;0.90;;
13012;SDS011;22580;57.670;12.006;2024-03-22T02:41:12;1.07;;;1.00;;
13012;SDS011;22580;57.670;12.006;2024-03-22T02:43:39;0.83;;;0.80;;
13012;SDS011;22580;57.670;12.006;2024-03-22T02:46:05;0.87;;;0.87;;
13012;SDS011;22580;57.670;12.006;2024-03-22T02:48:32;1.13;;;1.03;;
13012;SDS011;22580;57.670;12.006;2024-03-22T02:50:58;0.90;;;0.90;;
13012;SDS011;22580;57.670;12.006;2024-03-22T02:53:25;0.90;;;0.90;;
13012;SDS011;22580;57.670;12.006;2024-03-22T02:55:51;1.23;;;1.10;;
13012;SDS011;22580;57.670;12.006;2024-03-22T02:58:20;1.30;;;1.20;;
13012;SDS011;22580;57.670;12.006;2024-03-22T03:00:47;1.20;;;1.10;;
13012;SDS011;22580;57.670;12.006;2024-03-22T03:03:14;1.77;;;1.40;;
13012;SDS011;22580;57.670;12.006;2024-03-22T03:05:41;1.00;;;1.00;;
13012;SDS011;22580;57.670;12.006;2024-03-22T03:08:09;1.50;;;1.40;;
13012;SDS011;22580;57.670;12.006;2024-03-22T03:10:35;1.20;;;1.10;;
13012;SDS011;22580;57.670;12.006;2024-03-22T03:13:02;1.47;;;1.37;;
13012;SDS011;22580;57.670;12.006;2024-03-22T03:15:30;1.00;;;1.00;;
13012;SDS011;22580;57.670;12.006;2024-03-22T03:17:57;1.13;;;1.03;;
13012;SDS011;22580;57.670;12.006;2024-03-22T03:20:25;1.03;;;1.03;;
13012;SDS011;22580;57.670;12.006;2024-03-22T03:22:52;1.20;;;1.10;;
13012;SDS011;22580;57.670;12.006;2024-03-22T03:25:19;0.90;;;0.90;;
13012;SDS011;22580;57.670;12.006;2024-03-22T03:27:45;0.90;;;0.90;;
13012;SDS011;22580;57.670;12.006;2024-03-22T03:30:12;1.23;;;1.13;;
13012;SDS011;22580;57.670;12.006;2024-03-22T03:32:39;1.20;;;1.07;;
13012;SDS011;22580;57.670;12.006;2024-03-22T03:35:07;0.90;;;0.90;;
13012;SDS011;22580;57.670;12.006;2024-03-22T03:37:33;1.43;;;1.33;;
13012;SDS011;22580;57.670;12.006;2024-03-22T03:39:59;1.07;;;1.00;;
13012;SDS011;22580;57.670;12.006;2024-03-22T03:42:26;1.10;;;1.03;;
13012;SDS011;22580;57.670;12.006;2024-03-22T03:44:53;1.00;;;0.90;;
13012;SDS011;22580;57.670;12.006;2024-03-22T03:47:19;1.00;;;1.00;;
13012;SDS011;22580;57.670;12.006;2024-03-22T03:49:47;1.07;;;1.00;;
13012;SDS011;22580;57.670;12.006;2024-03-22T03:52:13;1.47;;;1.10;;
13012;SDS011;22580;57.670;12.006;2024-03-22T03:54:40;0.87;;;0.87;;
13012;SDS011;22580;57.670;12.006;2024-03-22T03:57:06;0.90;;;0.90;;
13012;SDS011;22580;57.670;12.006;2024-03-22T03:59:34;0.93;;;0.93;;
13012;SDS011;22580;57.670;12.006;2024-03-22T04:02:00;0.90;;;0.90;;
13012;SDS011;22580;57.670;12.006;2024-03-22T04:04:30;1.00;;;0.90;;
13012;SDS011;22580;57.670;12.006;2024-03-22T04:06:57;0.70;;;0.70;;
13012;SDS011;22580;57.670;12.006;2024-03-22T04:09:24;0.90;;;0.90;;
13012;SDS011;22580;57.670;12.006;2024-03-22T04:11:50;0.80;;;0.80;;
13012;SDS011;22580;57.670;12.006;2024-03-22T04:14:17;0.80;;;0.80;;
13012;SDS011;22580;57.670;12.006;2024-03-22T04:16:43;1.00;;;0.90;;
13012;SDS011;22580;57.670;12.006;2024-03-22T04:19:10;0.70;;;0.70;;
13012;SDS011;22580;57.670;12.006;2024-03-22T04:21:35;0.90;;;0.90;;
13012;SDS011;22580;57.670;12.006;2024-03-22T04:24:05;0.70;;;0.70;;
13012;SDS011;22580;57.670;12.006;2024-03-22T04:26:31;0.53;;;0.53;;
13012;SDS011;22580;57.670;12.006;2024-03-22T04:28:58;0.50;;;0.50;;
13012;SDS011;22580;57.670;12.006;2024-03-22T04:31:24;0.50;;;0.50;;
13012;SDS011;22580;57.670;12.006;2024-03-22T04:33:51;0.50;;;0.50;;
13012;SDS011;22580;57.670;12.006;2024-03-22T04:36:17;0.50;;;0.50;;
13012;SDS011;22580;57.670;12.006;2024-03-22T04:38:44;0.60;;;0.60;;
13012;SDS011;22580;57.670;12.006;2024-03-22T04:41:12;0.90;;;0.90;;
13012;SDS011;22580;57.670;12.006;2024-03-22T04:43:39;1.00;;;0.90;;
13012;SDS011;22580;57.670;12.006;2024-03-22T04:46:06;0.70;;;0.70;;
13012;SDS011;22580;57.670;12.006;2024-03-22T04:48:33;0.80;;;0.80;;
13012;SDS011;22580;57.670;12.006;2024-03-22T04:50:59;0.90;;;0.90;;
13012;SDS011;22580;57.670;12.006;2024-03-22T04:53:25;1.10;;;1.00;;
13012;SDS011;22580;57.670;12.006;2024-03-22T04:55:52;1.10;;;1.00;;
13012;SDS011;22580;57.670;12.006;2024-03-22T04:58:21;1.00;;;1.00;;
13012;SDS011;22580;57.670;12.006;2024-03-22T05:00:47;0.70;;;0.70;;
13012;SDS011;22580;57.670;12.006;2024-03-22T05:03:15;0.90;;;0.90;;
13012;SDS011;22580;57.670;12.006;2024-03-22T05:05:41;1.30;;;1.20;;
13012;SDS011;22580;57.670;12.006;2024-03-22T05:08:09;1.20;;;1.10;;
13012;SDS011;22580;57.670;12.006;2024-03-22T05:10:35;1.30;;;1.20;;
13012;SDS011;22580;57.670;12.006;2024-03-22T05:13:01;0.90;;;0.90;;
13012;SDS011;22580;57.670;12.006;2024-03-22T05:15:29;1.40;;;1.30;;
13012;SDS011;22580;57.670;12.006;2024-03-22T05:17:57;1.13;;;1.10;;
13012;SDS011;22580;57.670;12.006;2024-03-22T05:20:23;1.40;;;1.30;;
13012;SDS011;22580;57.670;12.006;2024-03-22T05:22:51;0.90;;;0.90;;
13012;SDS011;22580;57.670;12.006;2024-03-22T05:25:17;1.53;;;0.80;;
13012;SDS011;22580;57.670;12.006;2024-03-22T05:27:44;1.13;;;1.10;;
13012;SDS011;22580;57.670;12.006;2024-03-22T05:30:11;0.83;;;0.83;;
13012;SDS011;22580;57.670;12.006;2024-03-22T05:32:43;1.00;;;1.00;;
13012;SDS011;22580;57.670;12.006;2024-03-22T05:35:09;1.30;;;1.20;;
13012;SDS011;22580;57.670;12.006;2024-03-22T05:37:36;1.60;;;1.50;;
13012;SDS011;22580;57.670;12.006;2024-03-22T05:40:02;1.10;;;1.00;;
13012;SDS011;22580;57.670;12.006;2024-03-22T05:42:30;1.60;;;1.50;;
13012;SDS011;22580;57.670;12.006;2024-03-22T05:44:56;1.10;;;1.10;;
13012;SDS011;22580;57.670;12.006;2024-03-22T05:47:23;1.30;;;0.90;;
13012;SDS011;22580;57.670;12.006;2024-03-22T05:49:51;1.33;;;1.13;;
13012;SDS011;22580;57.670;12.006;2024-03-22T05:52:18;0.93;;;0.93;;
13012;SDS011;22580;57.670;12.006;2024-03-22T05:54:45;1.17;;;1.10;;
13012;SDS011;22580;57.670;12.006;2024-03-22T05:57:12;1.63;;;1.20;;
13012;SDS011;22580;57.670;12.006;2024-03-22T05:59:38;1.20;;;1.20;;
13012;SDS011;22580;57.670;12.006;2024-03-22T06:02:05;2.20;;;2.00;;
13012;SDS011;22580;57.670;12.006;2024-03-22T06:04:31;2.10;;;1.90;;
13012;SDS011;22580;57.670;12.006;2024-03-22T06:06:59;1.67;;;1.57;;
13012;SDS011;22580;57.670;12.006;2024-03-22T06:09:28;2.07;;;1.87;;
13012;SDS011;22580;57.670;12.006;2024-03-22T06:12:02;1.40;;;1.30;;
13012;SDS011;22580;57.670;12.006;2024-03-22T06:14:29;2.70;;;2.10;;
13012;SDS011;22580;57.670;12.006;2024-03-22T06:16:56;2.63;;;1.77;;
13012;SDS011;22580;57.670;12.006;2024-03-22T06:19:22;1.77;;;1.67;;
13012;SDS011;22580;57.670;12.006;2024-03-22T06:21:49;2.33;;;1.60;;
13012;SDS011;22580;57.670;12.006;2024-03-22T06:24:16;2.60;;;1.80;;
13012;SDS011;22580;57.670;12.006;2024-03-22T06:26:43;1.63;;;1.40;;
13012;SDS011;22580;57.670;12.006;2024-03-22T06:29:09;1.60;;;1.50;;
13012;SDS011;22580;57.670;12.006;2024-03-22T06:31:37;1.73;;;1.60;;
13012;SDS011;22580;57.670;12.006;2024-03-22T06:34:03;2.87;;;2.10;;
13012;SDS011;22580;57.670;12.006;2024-03-22T06:36:31;1.90;;;1.70;;
13012;SDS011;22580;57.670;12.006;2024-03-22T06:38:57;1.80;;;1.20;;
13012;SDS011;22580;57.670;12.006;2024-03-22T06:41:28;1.90;;;1.70;;
13012;SDS011;22580;57.670;12.006;2024-03-22T06:43:54;1.70;;;1.60;;
13012;SDS011;22580;57.670;12.006;2024-03-22T06:46:21;2.43;;;1.67;;
13012;SDS011;22580;57.670;12.006;2024-03-22T06:48:48;2.53;;;1.90;;
13012;SDS011;22580;57.670;12.006;2024-03-22T06:51:15;1.60;;;1.50;;
13012;SDS011;22580;57.670;12.006;2024-03-22T06:53:41;1.50;;;1.40;;
13012;SDS011;22580;57.670;12.006;2024-03-22T06:56:10;1.50;;;1.40;;
13012;SDS011;22580;57.670;12.006;2024-03-22T06:58:38;2.37;;;2.13;;
13012;SDS011;22580;57.670;12.006;2024-03-22T07:01:05;2.30;;;2.10;;
13012;SDS011;22580;57.670;12.006;2024-03-22T07:03:31;2.27;;;1.77;;
13012;SDS011;22580;57.670;12.006;2024-03-22T07:05:58;1.47;;;1.30;;
13012;SDS011;22580;57.670;12.006;2024-03-22T07:08:24;1.60;;;1.37;;
13012;SDS011;22580;57.670;12.006;2024-03-22T07:10:51;2.07;;;1.90;;
13012;SDS011;22580;57.670;12.006;2024-03-22T07:13:18;2.53;;;1.70;;
13012;SDS011;22580;57.670;12.006;2024-03-22T07:15:47;2.50;;;2.03;;
13012;SDS011;22580;57.670;12.006;2024-03-22T07:18:13;2.13;;;1.87;;
13012;SDS011;22580;57.670;12.006;2024-03-22T07:20:40;2.10;;;1.90;;
13012;SDS011;22580;57.670;12.006;2024-03-22T07:23:06;1.97;;;1.63;;
13012;SDS011;22580;57.670;12.006;2024-03-22T07:25:33;3.00;;;1.73;;
13012;SDS011;22580;57.670;12.006;2024-03-22T07:27:59;2.57;;;2.00;;
13012;SDS011;22580;57.670;12.006;2024-03-22T07:30:26;2.20;;;1.90;;
13012;SDS011;22580;57.670;12.006;2024-03-22T07:32:53;1.87;;;1.70;;
13012;SDS011;22580;57.670;12.006;2024-03-22T07:35:20;2.93;;;2.10;;
13012;SDS011;22580;57.670;12.006;2024-03-22T07:37:46;2.87;;;2.20;;
13012;SDS011;22580;57.670;12.006;2024-03-22T07:40:13;2.50;;;2.10;;
13012;SDS011;22580;57.670;12.006;2024-03-22T07:42:39;1.90;;;1.80;;
13012;SDS011;22580;57.670;12.006;2024-03-22T07:45:06;1.33;;;1.27;;
13012;SDS011;22580;57.670;12.006;2024-03-22T07:47:32;1.47;;;1.37;;
13012;SDS011;22580;57.670;12.006;2024-03-22T07:50:01;1.77;;;1.33;;
13012;SDS011;22580;57.670;12.006;2024-03-22T07:52:27;1.40;;;1.30;;
13012;SDS011;22580;57.670;12.006;2024-03-22T07:54:54;1.87;;;1.50;;
13012;SDS011;22580;57.670;12.006;2024-03-22T07:57:20;2.33;;;1.47;;
13012;SDS011;22580;57.670;12.006;2024-03-22T07:59:48;2.37;;;1.60;;
13012;SDS011;22580;57.670;12.006;2024-03-22T08:02:14;2.37;;;1.87;;
13012;SDS011;22580;57.670;12.006;2024-03-22T08:04:40;2.93;;;1.60;;
13012;SDS011;22580;57.670;12.006;2024-03-22T08:07:08;1.60;;;1.50;;
13012;SDS011;22580;57.670;12.006;2024-03-22T08:09:35;2.30;;;1.50;;
13012;SDS011;22580;57.670;12.006;2024-03-22T08:12:00;1.50;;;1.40;;
13012;SDS011;22580;57.670;12.006;2024-03-22T08:14:29;1.27;;;1.10;;
13012;SDS011;22580;57.670;12.006;2024-03-22T08:16:55;1.37;;;1.27;;
13012;SDS011;22580;57.670;12.006;2024-03-22T08:19:22;1.77;;;1.03;;
13012;SDS011;22580;57.670;12.006;2024-03-22T08:21:48;1.30;;;1.07;;
13012;SDS011;22580;57.670;12.006;2024-03-22T08:24:16;0.93;;;0.90;;
13012;SDS011;22580;57.670;12.006;2024-03-22T08:26:42;1.00;;;0.90;;
13012;SDS011;22580;57.670;12.006;2024-03-22T08:29:11;1.30;;;1.00;;
13012;SDS011;22580;57.670;12.006;2024-03-22T08:31:38;0.80;;;0.80;;
13012;SDS011;22580;57.670;12.006;2024-03-22T08:34:05;2.30;;;1.33;;
13012;SDS011;22580;57.670;12.006;2024-03-22T08:36:30;1.20;;;1.10;;
13012;SDS011;22580;57.670;12.006;2024-03-22T08:38:57;1.43;;;1.17;;
13012;SDS011;22580;57.670;12.006;2024-03-22T08:41:24;1.00;;;0.90;;
13012;SDS011;22580;57.670;12.006;2024-03-22T08:43:51;2.00;;;0.97;;
13012;SDS011;22580;57.670;12.006;2024-03-22T08:46:17;2.10;;;1.23;;
13012;SDS011;22580;57.670;12.006;2024-03-22T08:48:46;2.57;;;1.30;;
13012;SDS011;22580;57.670;12.006;2024-03-22T08:51:12;1.20;;;1.10;;
13012;SDS011;22580;57.670;12.006;2024-03-22T08:53:39;0.80;;;0.80;;
13012;SDS011;22580;57.670;12.006;2024-03-22T08:56:05;0.97;;;0.83;;
13012;SDS011;22580;57.670;12.006;2024-03-22T08:58:33;0.80;;;0.80;;
13012;SDS011;22580;57.670;12.006;2024-03-22T09:00:59;1.33;;;1.00;;
13012;SDS011;22580;57.670;12.006;2024-03-22T09:03:25;1.10;;;1.00;;
13012;SDS011;22580;57.670;12.006;2024-03-22T09:05:52;1.30;;;0.83;;
13012;SDS011;22580;57.670;12.006;2024-03-22T09:08:19;1.57;;;1.23;;
13012;SDS011;22580;57.670;12.006;2024-03-22T09:10:46;2.17;;;1.07;;
13012;SDS011;22580;57.670;12.006;2024-03-22T09:13:13;1.33;;;1.23;;
13012;SDS011;22580;57.670;12.006;2024-03-22T09:15:41;2.70;;;1.20;;
13012;SDS011;22580;57.670;12.006;2024-03-22T09:18:08;3.90;;;1.90;;
13012;SDS011;22580;57.670;12.006;2024-03-22T09:20:33;1.97;;;1.30;;
13012;SDS011;22580;57.670;12.006;2024-03-22T09:23:00;2.47;;;1.57;;
13012;SDS011;22580;57.670;12.006;2024-03-22T09:25:27;1.97;;;1.40;;
13012;SDS011;22580;57.670;12.006;2024-03-22T09:27:54;1.90;;;0.90;;
13012;SDS011;22580;57.670;12.006;2024-03-22T09:30:20;1.17;;;1.07;;
13012;SDS011;22580;57.670;12.006;2024-03-22T09:32:48;2.13;;;1.30;;
13012;SDS011;22580;57.670;12.006;2024-03-22T09:35:14;2.13;;;1.30;;
13012;SDS011;22580;57.670;12.006;2024-03-22T09:37:42;1.83;;;1.50;;
13012;SDS011;22580;57.670;12.006;2024-03-22T09:40:09;3.53;;;1.80;;
13012;SDS011;22580;57.670;12.006;2024-03-22T09:42:37;2.77;;;1.33;;
13012;SDS011;22580;57.670;12.006;2024-03-22T09:45:04;1.77;;;1.40;;
13012;SDS011;22580;57.670;12.006;2024-03-22T09:47:35;2.73;;;1.30;;
13012;SDS011;22580;57.670;12.006;2024-03-22T09:50:03;3.23;;;1.40;;
13012;SDS011;22580;57.670;12.006;2024-03-22T09:52:33;3.10;;;1.47;;
13012;SDS011;22580;57.670;12.006;2024-03-22T09:55:00;1.00;;;0.90;;
13012;SDS011;22580;57.670;12.006;2024-03-22T09:57:29;2.57;;;1.37;;
13012;SDS011;22580;57.670;12.006;2024-03-22T09:59:56;3.10;;;1.63;;
13012;SDS011;22580;57.670;12.006;2024-03-22T10:02:23;1.23;;;1.13;;
13012;SDS011;22580;57.670;12.006;2024-03-22T10:04:51;2.20;;;1.50;;
13012;SDS011;22580;57.670;12.006;2024-03-22T10:07:20;1.33;;;1.00;;
13012;SDS011;22580;57.670;12.006;2024-03-22T10:09:46;2.60;;;1.33;;
13012;SDS011;22580;57.670;12.006;2024-03-22T10:12:13;3.27;;;1.57;;
13012;SDS011;22580;57.670;12.006;2024-03-22T10:14:42;2.33;;;1.50;;
13012;SDS011;22580;57.670;12.006;2024-03-22T10:17:09;1.80;;;1.13;;
13012;SDS011;22580;57.670;12.006;2024-03-22T10:19:35;4.97;;;2.10;;
13012;SDS011;22580;57.670;12.006;2024-03-22T10:22:02;2.83;;;1.80;;
13012;SDS011;22580;57.670;12.006;2024-03-22T10:24:31;2.40;;;1.70;;
13012;SDS011;22580;57.670;12.006;2024-03-22T10:26:58;1.47;;;1.10;;
13012;SDS011;22580;57.670;12.006;2024-03-22T10:29:24;2.50;;;1.10;;
13012;SDS011;22580;57.670;12.006;2024-03-22T10:31:52;2.23;;;1.27;;
13012;SDS011;22580;57.670;12.006;2024-03-22T10:34:18;2.67;;;1.37;;
13012;SDS011;22580;57.670;12.006;2024-03-22T10:36:47;3.87;;;1.33;;
13012;SDS011;22580;57.670;12.006;2024-03-22T10:39:13;1.30;;;1.03;;
13012;SDS011;22580;57.670;12.006;2024-03-22T10:41:44;0.83;;;0.80;;
13012;SDS011;22580;57.670;12.006;2024-03-22T10:44:10;1.20;;;0.90;;
13012;SDS011;22580;57.670;12.006;2024-03-22T10:46:37;2.93;;;1.20;;
13012;SDS011;22580;57.670;12.006;2024-03-22T10:49:08;1.00;;;0.90;;
13012;SDS011;22580;57.670;12.006;2024-03-22T10:51:37;2.27;;;0.77;;
13012;SDS011;22580;57.670;12.006;2024-03-22T10:54:03;0.90;;;0.80;;
13012;SDS011;22580;57.670;12.006;2024-03-22T10:56:32;1.00;;;0.90;;
13012;SDS011;22580;57.670;12.006;2024-03-22T10:59:03;0.60;;;0.50;;
13012;SDS011;22580;57.670;12.006;2024-03-22T11:01:31;0.70;;;0.50;;
13012;SDS011;22580;57.670;12.006;2024-03-22T11:04:05;2.33;;;1.07;;
13012;SDS011;22580;57.670;12.006;2024-03-22T11:06:35;1.80;;;1.00;;
13012;SDS011;22580;57.670;12.006;2024-03-22T11:09:02;1.27;;;0.83;;
13012;SDS011;22580;57.670;12.006;2024-03-22T11:11:29;1.73;;;0.77;;
13012;SDS011;22580;57.670;12.006;2024-03-22T11:13:56;2.53;;;1.20;;
13012;SDS011;22580;57.670;12.006;2024-03-22T11:16:25;3.47;;;1.30;;
13012;SDS011;22580;57.670;12.006;2024-03-22T11:18:50;1.70;;;1.13;;
13012;SDS011;22580;57.670;12.006;2024-03-22T11:21:17;0.93;;;0.80;;
13012;SDS011;22580;57.670;12.006;2024-03-22T11:23:44;1.60;;;0.87;;
13012;SDS011;22580;57.670;12.006;2024-03-22T11:26:11;2.40;;;1.10;;
13012;SDS011;22580;57.670;12.006;2024-03-22T11:28:37;1.20;;;0.50;;
13012;SDS011;22580;57.670;12.006;2024-03-22T11:31:04;0.80;;;0.70;;
13012;SDS011;22580;57.670;12.006;2024-03-22T11:33:32;4.13;;;1.47;;
13012;SDS011;22580;57.670;12.006;2024-03-22T11:35:58;1.87;;;1.17;;
13012;SDS011;22580;57.670;12.006;2024-03-22T11:38:25;1.97;;;1.20;;
13012;SDS011;22580;57.670;12.006;2024-03-22T11:40:53;2.80;;;1.30;;
13012;SDS011;22580;57.670;12.006;2024-03-22T11:43:20;1.53;;;1.17;;
13012;SDS011;22580;57.670;12.006;2024-03-22T11:45:48;2.83;;;1.30;;
13012;SDS011;22580;57.670;12.006;2024-03-22T11:48:14;3.87;;;1.50;;
13012;SDS011;22580;57.670;12.006;2024-03-22T11:50:43;2.23;;;1.23;;
13012;SDS011;22580;57.670;12.006;2024-03-22T11:53:08;2.77;;;1.17;;
13012;SDS011;22580;57.670;12.006;2024-03-22T11:55:35;1.20;;;0.80;;
13012;SDS011;22580;57.670;12.006;2024-03-22T11:58:01;1.53;;;1.03;;
13012;SDS011;22580;57.670;12.006;2024-03-22T12:00:28;3.57;;;1.50;;
13012;SDS011;22580;57.670;12.006;2024-03-22T12:02:54;1.20;;;0.90;;
13012;SDS011;22580;57.670;12.006;2024-03-22T12:05:21;1.70;;;1.10;;
13012;SDS011;22580;57.670;12.006;2024-03-22T12:07:50;2.37;;;1.30;;
13012;SDS011;22580;57.670;12.006;2024-03-22T12:10:17;4.37;;;1.50;;
13012;SDS011;22580;57.670;12.006;2024-03-22T12:12:43;1.80;;;0.93;;
13012;SDS011;22580;57.670;12.006;2024-03-22T12:15:10;0.80;;;0.80;;
13012;SDS011;22580;57.670;12.006;2024-03-22T12:17:36;4.77;;;1.67;;
13012;SDS011;22580;57.670;12.006;2024-03-22T12:20:05;4.10;;;1.77;;
13012;SDS011;22580;57.670;12.006;2024-03-22T12:22:33;2.63;;;1.43;;
13012;SDS011;22580;57.670;12.006;2024-03-22T12:25:02;4.03;;;1.73;;
13012;SDS011;22580;57.670;12.006;2024-03-22T12:27:29;3.80;;;1.50;;
13012;SDS011;22580;57.670;12.006;2024-03-22T12:29:56;4.23;;;1.27;;
13012;SDS011;22580;57.670;12.006;2024-03-22T12:32:22;5.80;;;2.17;;
13012;SDS011;22580;57.670;12.006;2024-03-22T12:34:49;6.83;;;2.17;;
13012;SDS011;22580;57.670;12.006;2024-03-22T12:37:14;5.10;;;1.97;;
13012;SDS011;22580;57.670;12.006;2024-03-22T12:39:44;8.57;;;2.90;;
13012;SDS011;22580;57.670;12.006;2024-03-22T12:42:15;4.97;;;2.30;;
13012;SDS011;22580;57.670;12.006;2024-03-22T12:44:42;4.87;;;2.30;;
13012;SDS011;22580;57.670;12.006;2024-03-22T12:47:08;7.43;;;2.90;;
13012;SDS011;22580;57.670;12.006;2024-03-22T12:49:34;8.93;;;3.40;;
13012;SDS011;22580;57.670;12.006;2024-03-22T12:52:00;8.77;;;2.63;;
13012;SDS011;22580;57.670;12.006;2024-03-22T12:54:28;4.87;;;2.20;;
13012;SDS011;22580;57.670;12.006;2024-03-22T12:56:53;2.30;;;1.47;;
13012;SDS011;22580;57.670;12.006;2024-03-22T12:59:22;8.03;;;2.50;;
13012;SDS011;22580;57.670;12.006;2024-03-22T13:01:48;6.03;;;2.33;;
13012;SDS011;22580;57.670;12.006;2024-03-22T13:04:15;7.33;;;2.50;;
13012;SDS011;22580;57.670;12.006;2024-03-22T13:06:42;7.83;;;2.70;;
13012;SDS011;22580;57.670;12.006;2024-03-22T13:09:09;8.93;;;3.63;;
13012;SDS011;22580;57.670;12.006;2024-03-22T13:11:37;5.57;;;2.60;;
13012;SDS011;22580;57.670;12.006;2024-03-22T13:14:06;7.63;;;2.87;;
13012;SDS011;22580;57.670;12.006;2024-03-22T13:16:33;6.23;;;2.83;;
13012;SDS011;22580;57.670;12.006;2024-03-22T13:19:00;3.83;;;2.13;;
13012;SDS011;22580;57.670;12.006;2024-03-22T13:21:25;5.83;;;2.37;;
13012;SDS011;22580;57.670;12.006;2024-03-22T13:23:53;6.27;;;2.57;;
13012;SDS011;22580;57.670;12.006;2024-03-22T13:26:19;9.37;;;3.03;;
13012;SDS011;22580;57.670;12.006;2024-03-22T13:28:45;6.40;;;2.47;;
13012;SDS011;22580;57.670;12.006;2024-03-22T13:31:11;7.97;;;3.67;;
13012;SDS011;22580;57.670;12.006;2024-03-22T13:33:39;12.37;;;3.77;;
13012;SDS011;22580;57.670;12.006;2024-03-22T13:36:05;14.13;;;4.37;;
13012;SDS011;22580;57.670;12.006;2024-03-22T13:38:32;13.10;;;3.93;;
13012;SDS011;22580;57.670;12.006;2024-03-22T13:40:58;10.43;;;3.63;;
13012;SDS011;22580;57.670;12.006;2024-03-22T13:43:25;10.50;;;3.53;;
13012;SDS011;22580;57.670;12.006;2024-03-22T13:45:52;9.53;;;3.20;;
13012;SDS011;22580;57.670;12.006;2024-03-22T13:48:20;10.20;;;3.57;;
13012;SDS011;22580;57.670;12.006;2024-03-22T13:50:50;13.13;;;4.50;;
13012;SDS011;22580;57.670;12.006;2024-03-22T13:53:18;10.70;;;3.30;;
13012;SDS011;22580;57.670;12.006;2024-03-22T13:55:44;9.20;;;3.40;;
13012;SDS011;22580;57.670;12.006;2024-03-22T13:58:11;14.13;;;3.40;;
13012;SDS011;22580;57.670;12.006;2024-03-22T14:00:37;9.07;;;3.00;;
13012;SDS011;22580;57.670;12.006;2024-03-22T14:03:04;5.40;;;2.43;;
13012;SDS011;22580;57.670;12.006;2024-03-22T14:05:30;4.27;;;2.17;;
13012;SDS011;22580;57.670;12.006;2024-03-22T14:07:59;9.57;;;3.23;;
13012;SDS011;22580;57.670;12.006;2024-03-22T14:10:25;9.07;;;3.20;;
13012;SDS011;22580;57.670;12.006;2024-03-22T14:12:52;7.93;;;3.13;;
13012;SDS011;22580;57.670;12.006;2024-03-22T14:15:18;5.30;;;2.33;;
13012;SDS011;22580;57.670;12.006;2024-03-22T14:17:45;6.27;;;2.70;;
13012;SDS011;22580;57.670;12.006;2024-03-22T14:20:11;10.17;;;3.70;;
13012;SDS011;22580;57.670;12.006;2024-03-22T14:22:38;8.50;;;3.13;;
13012;SDS011;22580;57.670;12.006;2024-03-22T14:25:07;5.87;;;2.70;;
13012;SDS011;22580;57.670;12.006;2024-03-22T14:27:35;10.43;;;3.37;;
13012;SDS011;22580;57.670;12.006;2024-03-22T14:30:02;5.55;;;2.40;;
13012;SDS011;22580;57.670;12.006;2024-03-22T14:32:31;5.25;;;2.58;;